Simpsonville, SC (29681)

9:05 PM EST on February 06, 2016 (GMT -0500)
Heritage Creek | | Change Station
CLOSE
Current Station
Personal Weather Station
Location: Simpsonville, SC
Elevation: 892 ft
Nearby Weather Stations

Elev 892 ft 34.72 °N, 82.24 °W | Updated 13 minutes ago

Clear
Clear
41.5 °F
Feels Like 42 °F
N
0.0
Wind Variable Wind from SSW

Today
High -- | Low -- °F
--% Chance of Precip.
Yesterday
High -- | Low -- °F
Precip. -- in
Pressure 30.24 in
Visibility -9999.0 miles
Clouds Mostly Cloudy 7500 ft
Windchill 42 °F
Dew Point 21 °F
Humidity 44%
Rainfall 0.00 in
Snow Depth Not available.
7:23 AM 6:02 PM
Waning Crescent, 3% visible
METAR KGYH 070147Z 07004KT 10 SM BKN075 07/M08 A3024 RMK LAST
Pressure 30.24 in
Visibility -9999.0 miles
Clouds Mostly Cloudy 7500 ft
Windchill 42 °F
Dew Point 21 °F
Humidity 44%
Rainfall 0.00 in
Snow Depth Not available.
7:23 AM 6:02 PM
Waning Crescent, 3% visible
METAR KGYH 070147Z 07004KT 10 SM BKN075 07/M08 A3024 RMK LAST

10-Day Weather Forecast

Almanac

Astronomy

Feb. 06, 2016 Rise Set
Actual Time
Civil Twilight
Nautical Twilight
Astronomical Twilight
Moon
Length of Visible Light
Length of Day
Tomorrow will be .
, % of the Moon is Illuminated

Today's Extremes

State Highs State Lows

Community

WunderPhotos

Upload Photos

1,891,132 photos uploaded!

WunderBlog® & News

Nearby

Air Quality

  Air Quality AQ Index Pollutant
Not available.

Snow Depth

Station Depth Elevation

Earthquake Activity

City Distance Mag. Time & Date
Minimum magnitude displayed is 2.5.

Coastal Water Temperatures

Place Temperature

Stations

Nearby Weather Stations

Station Location Temp. Windchill Dew Point Humidity Wind Precip. Elev Updated Type
                   

Watches & Warnings

There are currently no watches in effect.